createdAt,value
2022-09-21T04:30:57.290Z,22.80
2022-09-21T04:31:57.236Z,21.80
2022-09-21T04:32:57.270Z,16.50
2022-09-21T04:33:57.210Z,17.00
2022-09-21T04:34:57.189Z,15.20
2022-09-21T04:35:57.185Z,20.50
2022-09-21T04:36:57.270Z,14.60
2022-09-21T04:37:57.147Z,17.60
2022-09-21T04:38:57.212Z,17.50
2022-09-21T04:39:57.154Z,19.90
2022-09-21T04:40:57.177Z,19.00
2022-09-21T04:41:57.123Z,14.20
2022-09-21T04:42:57.083Z,16.60
2022-09-21T04:43:57.197Z,15.90
2022-09-21T04:44:57.062Z,17.90
2022-09-21T04:46:04.166Z,19.10
2022-09-21T04:46:57.048Z,18.10
2022-09-21T04:47:57.033Z,18.60
2022-09-21T04:48:57.031Z,25.40
2022-09-21T04:49:57.003Z,20.70
2022-09-21T04:50:56.978Z,21.00
2022-09-21T04:51:57.159Z,25.40
2022-09-21T04:52:56.989Z,19.70
2022-09-21T04:53:56.948Z,22.60
2022-09-21T04:54:56.929Z,17.80
2022-09-21T04:55:56.928Z,14.60
2022-09-21T04:56:56.899Z,17.70
2022-09-21T04:57:56.895Z,11.40
2022-09-21T04:58:56.874Z,23.00
2022-09-21T04:59:56.868Z,12.70
2022-09-21T05:00:56.865Z,15.60
2022-09-21T05:01:56.868Z,11.90
2022-09-21T05:02:56.845Z,7.70
2022-09-21T05:03:56.858Z,6.80
2022-09-21T05:04:56.798Z,13.10
2022-09-21T05:05:56.783Z,10.60
2022-09-21T05:06:56.776Z,11.70
2022-09-21T05:07:56.763Z,11.80
2022-09-21T05:08:56.735Z,12.60
2022-09-21T05:09:56.735Z,16.50
2022-09-21T05:10:56.713Z,14.40
2022-09-21T05:11:56.722Z,18.20
2022-09-21T05:12:56.685Z,20.30
2022-09-21T05:13:56.685Z,17.10
2022-09-21T05:14:56.663Z,21.40
2022-09-21T05:15:56.711Z,21.20
2022-09-21T05:16:56.654Z,20.30
2022-09-21T05:17:56.645Z,18.00
2022-09-21T05:18:56.623Z,15.50
2022-09-21T05:19:56.615Z,11.40
2022-09-21T05:20:56.593Z,12.80
2022-09-21T05:21:56.602Z,22.80
2022-09-21T05:22:56.553Z,16.60
2022-09-21T05:23:56.542Z,15.10
2022-09-21T05:24:56.534Z,15.90
2022-09-21T05:25:56.522Z,21.20
2022-09-21T05:26:56.512Z,13.50
2022-09-21T05:27:56.492Z,20.00
2022-09-21T05:28:56.471Z,18.30
2022-09-21T05:29:56.531Z,20.20
2022-09-21T05:31:16.725Z,21.50
2022-09-21T05:31:57.450Z,19.20
2022-09-21T05:32:56.420Z,18.00
2022-09-21T05:33:56.411Z,20.70
2022-09-21T05:34:56.390Z,15.00
2022-09-21T05:35:56.390Z,21.50
2022-09-21T05:36:56.391Z,20.90
2022-09-21T05:37:56.360Z,22.20
2022-09-21T05:38:56.340Z,18.90
2022-09-21T05:39:56.329Z,18.60
2022-09-21T05:40:56.371Z,19.10
2022-09-21T05:41:56.315Z,20.40
2022-09-21T05:42:56.295Z,25.40
2022-09-21T05:43:56.269Z,30.30
2022-09-21T05:44:56.259Z,31.80
2022-09-21T05:45:56.306Z,20.60
2022-09-21T05:46:56.556Z,20.20
2022-09-21T05:47:56.219Z,21.40
2022-09-21T05:48:56.209Z,17.10
2022-09-21T05:49:56.220Z,20.40
2022-09-21T05:50:56.179Z,19.20
2022-09-21T05:51:56.180Z,16.70
2022-09-21T05:52:56.159Z,19.30
2022-09-21T05:53:56.157Z,22.80
2022-09-21T05:54:56.148Z,16.00
2022-09-21T05:55:56.127Z,17.80
2022-09-21T05:56:56.130Z,19.80
2022-09-21T05:57:56.089Z,15.40
2022-09-21T05:58:56.076Z,15.50
2022-09-21T05:59:56.058Z,15.00
2022-09-21T06:00:56.081Z,15.70
2022-09-21T06:01:56.046Z,18.50
2022-09-21T06:02:56.025Z,18.90
2022-09-21T06:03:56.005Z,16.10
2022-09-21T06:04:55.997Z,19.80
2022-09-21T06:05:55.975Z,18.90
2022-09-21T06:06:55.983Z,15.60
2022-09-21T06:07:55.945Z,17.60
2022-09-21T06:08:55.942Z,17.10
2022-09-21T06:09:55.924Z,20.00
2022-09-21T06:10:55.925Z,17.10
2022-09-21T06:11:55.923Z,17.20
2022-09-21T06:12:55.903Z,20.70
2022-09-21T06:13:55.872Z,20.40
2022-09-21T06:14:55.861Z,19.50
2022-09-21T06:15:55.840Z,22.70
2022-09-21T06:16:55.857Z,23.10
2022-09-21T06:17:55.827Z,19.00
2022-09-21T06:18:55.806Z,20.60
2022-09-21T06:19:55.785Z,20.70
2022-09-21T06:20:55.781Z,20.40
2022-09-21T06:21:55.782Z,21.80
2022-09-21T06:22:55.763Z,20.20
2022-09-21T06:23:55.733Z,18.70
2022-09-21T06:24:55.731Z,21.40
2022-09-21T06:25:58.556Z,23.30
2022-09-21T06:26:55.702Z,18.80
2022-09-21T06:27:55.713Z,19.70
2022-09-21T06:28:55.679Z,21.60
2022-09-21T06:29:55.678Z,18.50
2022-09-21T06:30:55.740Z,21.90
2022-09-21T06:31:55.630Z,20.20
2022-09-21T06:32:55.660Z,19.40
2022-09-21T06:33:55.600Z,24.30
2022-09-21T06:34:55.589Z,23.10
2022-09-21T06:35:55.579Z,17.20
2022-09-21T06:36:55.569Z,24.50
2022-09-21T06:37:55.580Z,25.80
2022-09-21T06:38:55.538Z,26.90
2022-09-21T06:39:55.527Z,21.70
2022-09-21T06:40:55.529Z,25.10
2022-09-21T06:41:55.528Z,21.70
2022-09-21T06:42:55.498Z,22.90
2022-09-21T06:43:55.552Z,19.20
2022-09-21T06:44:55.478Z,21.30
2022-09-21T06:45:55.591Z,19.60
2022-09-21T06:46:55.447Z,18.80
2022-09-21T06:47:55.454Z,18.70
2022-09-21T06:48:55.407Z,17.80
2022-09-21T06:49:55.395Z,21.10
2022-09-21T06:50:55.386Z,18.30
2022-09-21T06:51:55.397Z,20.90
2022-09-21T06:52:55.397Z,19.60
2022-09-21T06:53:55.366Z,21.00
2022-09-21T06:54:55.336Z,14.50
2022-09-21T06:55:55.317Z,13.50
2022-09-21T06:56:59.843Z,13.70
2022-09-21T06:57:55.306Z,12.80
2022-09-21T06:58:55.275Z,11.10
2022-09-21T06:59:55.264Z,18.20
2022-09-21T07:00:55.351Z,16.20
2022-09-21T07:01:55.296Z,21.30
2022-09-21T07:02:55.246Z,15.60
2022-09-21T07:03:55.215Z,21.00
2022-09-21T07:04:55.287Z,19.40
2022-09-21T07:05:55.212Z,14.20
2022-09-21T07:06:55.174Z,14.20
2022-09-21T07:07:55.184Z,18.50
2022-09-21T07:10:15.760Z,19.20
2022-09-21T07:10:56.127Z,18.50
2022-09-21T07:11:55.105Z,13.30
2022-09-21T07:12:55.112Z,15.30
2022-09-21T07:13:55.147Z,23.60
2022-09-21T07:14:55.074Z,10.00
2022-09-21T07:15:55.054Z,14.40
2022-09-21T07:16:55.043Z,17.90
2022-09-21T07:18:05.587Z,11.10
2022-09-21T07:18:56.923Z,11.60
2022-09-21T07:19:55.002Z,29.90
2022-09-21T07:20:54.992Z,11.10
2022-09-21T07:21:54.971Z,16.70
2022-09-21T07:22:54.996Z,12.50
2022-09-21T07:23:54.973Z,13.20
2022-09-21T07:24:54.942Z,14.40
2022-09-21T07:25:54.922Z,15.40
2022-09-21T07:26:54.912Z,15.60
2022-09-21T07:27:54.901Z,14.00
2022-09-21T07:28:54.925Z,12.40
2022-09-21T07:29:54.872Z,12.50
2022-09-21T07:30:54.860Z,12.80
2022-09-21T07:31:54.888Z,10.70
2022-09-21T07:32:54.850Z,12.10
2022-09-21T07:33:54.818Z,10.20
2022-09-21T07:34:54.809Z,9.20
2022-09-21T07:35:54.790Z,12.30
2022-09-21T07:36:54.782Z,13.40
2022-09-21T07:37:54.784Z,12.50
2022-09-21T07:38:54.750Z,13.80
2022-09-21T07:39:54.751Z,13.50
2022-09-21T07:40:54.759Z,15.40
2022-09-21T07:41:54.719Z,14.50
2022-09-21T07:42:54.722Z,15.90
2022-09-21T07:43:54.769Z,12.70
2022-09-21T07:45:03.410Z,15.60
2022-09-21T07:45:56.715Z,11.90
2022-09-21T07:46:54.650Z,12.80
2022-09-21T07:47:54.649Z,12.70
2022-09-21T07:48:54.619Z,11.90
2022-09-21T07:49:54.609Z,12.10
2022-09-21T07:50:54.603Z,13.00
2022-09-21T07:51:54.588Z,11.00
2022-09-21T07:52:54.591Z,11.70
2022-09-21T07:53:54.558Z,12.20
2022-09-21T07:54:54.547Z,10.50
2022-09-21T07:55:54.538Z,16.10
2022-09-21T07:56:54.517Z,14.70
2022-09-21T07:57:54.597Z,17.50
2022-09-21T07:58:54.524Z,12.40
2022-09-21T07:59:54.607Z,12.60
2022-09-21T08:00:54.509Z,12.30
2022-09-21T08:01:54.484Z,12.10
2022-09-21T08:02:54.487Z,11.00
2022-09-21T08:03:54.436Z,11.60
2022-09-21T08:04:54.423Z,11.60
2022-09-21T08:05:54.427Z,10.90
2022-09-21T08:06:54.583Z,10.80
2022-09-21T08:07:54.398Z,12.80
2022-09-21T08:08:57.653Z,12.80
2022-09-21T08:09:54.357Z,11.50
2022-09-21T08:10:54.338Z,12.40
2022-09-21T08:11:54.327Z,12.50
2022-09-21T08:12:54.363Z,10.70
2022-09-21T08:13:54.369Z,11.80
2022-09-21T08:14:54.285Z,11.50
2022-09-21T08:15:54.441Z,9.70
2022-09-21T08:16:54.343Z,8.30
2022-09-21T08:17:54.275Z,8.30
2022-09-21T08:18:54.256Z,9.90
2022-09-21T08:19:54.256Z,12.10
2022-09-21T08:20:54.203Z,10.90
2022-09-21T08:21:57.491Z,10.60
2022-09-21T08:22:54.193Z,9.90
2022-09-21T08:23:54.167Z,8.80
2022-09-21T08:24:54.154Z,9.40
2022-09-21T08:25:54.145Z,9.90
2022-09-21T08:26:54.124Z,9.50
2022-09-21T08:27:54.135Z,9.80
2022-09-21T08:28:54.102Z,8.70
2022-09-21T08:29:54.096Z,10.00
2022-09-21T08:30:54.072Z,8.40
2022-09-21T08:31:54.112Z,10.90
2022-09-21T08:32:54.054Z,9.80
2022-09-21T08:33:54.052Z,9.00
2022-09-21T08:34:54.034Z,9.90
2022-09-21T08:35:54.004Z,9.40
2022-09-21T08:36:55.757Z,10.40
2022-09-21T08:37:54.003Z,8.80
2022-09-21T08:38:53.972Z,11.00
2022-09-21T08:39:53.960Z,10.80
2022-09-21T08:40:53.979Z,12.10
2022-09-21T08:41:53.943Z,10.50
2022-09-21T08:42:53.923Z,12.20
2022-09-21T08:43:53.902Z,11.40
2022-09-21T08:44:53.902Z,11.30
2022-09-21T08:45:53.883Z,10.60
2022-09-21T08:46:53.912Z,9.40
2022-09-21T08:47:53.872Z,11.60
2022-09-21T08:48:53.834Z,13.50
2022-09-21T08:49:53.833Z,11.00
2022-09-21T08:50:53.813Z,13.50
2022-09-21T08:51:53.803Z,12.90
2022-09-21T08:52:53.813Z,10.10
2022-09-21T08:53:53.784Z,11.00
2022-09-21T08:54:53.752Z,11.70
2022-09-21T08:55:53.742Z,9.80
2022-09-21T08:57:04.993Z,7.80
2022-09-21T08:57:54.745Z,13.20
2022-09-21T08:58:53.703Z,11.30
2022-09-21T08:59:53.740Z,9.00
2022-09-21T09:00:53.741Z,9.50
2022-09-21T09:01:53.734Z,12.30
2022-09-21T09:02:53.654Z,11.90
2022-09-21T09:03:53.642Z,10.80
2022-09-21T09:04:53.622Z,9.20
2022-09-21T09:05:53.612Z,11.10
2022-09-21T09:06:53.591Z,10.00
2022-09-21T09:07:53.589Z,7.70
2022-09-21T09:08:53.581Z,9.90
2022-09-21T09:09:53.564Z,9.30
2022-09-21T09:10:53.563Z,8.70
2022-09-21T09:11:53.535Z,9.40
2022-09-21T09:12:53.515Z,9.70
2022-09-21T09:13:53.521Z,9.50
2022-09-21T09:14:53.487Z,7.00
2022-09-21T09:15:53.492Z,7.20
2022-09-21T09:16:53.469Z,10.50
2022-09-21T09:17:53.450Z,9.80
2022-09-21T09:18:53.450Z,9.90
2022-09-21T09:19:53.430Z,8.20
2022-09-21T09:20:53.410Z,8.70
2022-09-21T09:21:53.401Z,11.80
2022-09-21T09:22:53.388Z,8.50
2022-09-21T09:23:53.387Z,7.90
2022-09-21T09:24:53.371Z,6.30
2022-09-21T09:25:53.350Z,9.70
2022-09-21T09:26:53.333Z,8.60
2022-09-21T09:27:53.344Z,10.10
2022-09-21T09:28:53.387Z,9.80
2022-09-21T09:29:53.320Z,5.70
2022-09-21T09:30:53.279Z,10.60
2022-09-21T09:31:53.323Z,6.10
2022-09-21T09:32:53.250Z,7.70
2022-09-21T09:33:53.260Z,8.00
2022-09-21T09:34:53.220Z,8.10
2022-09-21T09:35:53.223Z,6.10
2022-09-21T09:37:00.411Z,9.30
2022-09-21T09:37:54.182Z,5.20
2022-09-21T09:38:53.180Z,7.70
2022-09-21T09:39:53.169Z,7.20
2022-09-21T09:40:53.140Z,5.30
2022-09-21T09:41:53.141Z,8.10
2022-09-21T09:42:53.119Z,8.10
2022-09-21T09:43:53.119Z,6.10
2022-09-21T09:44:53.110Z,6.10
2022-09-21T09:45:53.084Z,5.30
2022-09-21T09:46:53.118Z,6.90
2022-09-21T09:47:53.050Z,9.50
2022-09-21T09:48:54.284Z,9.70
2022-09-21T09:49:53.034Z,9.20
2022-09-21T09:50:53.018Z,5.20
2022-09-21T09:51:53.019Z,8.10
2022-09-21T09:52:53.238Z,5.60
2022-09-21T09:53:52.980Z,7.50
2022-09-21T09:54:52.960Z,9.00
2022-09-21T09:55:52.944Z,8.90
2022-09-21T09:56:52.930Z,5.40
2022-09-21T09:57:52.921Z,10.00
2022-09-21T09:58:52.919Z,5.80
2022-09-21T09:59:54.612Z,7.20
2022-09-21T10:00:53.216Z,5.50
2022-09-21T10:01:52.897Z,5.10
2022-09-21T10:02:52.926Z,7.50
2022-09-21T10:03:52.922Z,5.90
2022-09-21T10:04:52.850Z,7.60
2022-09-21T10:05:52.809Z,5.20
2022-09-21T10:06:52.800Z,6.10
2022-09-21T10:07:52.788Z,6.60
2022-09-21T10:08:52.790Z,4.70
2022-09-21T10:09:52.761Z,9.30
2022-09-21T10:10:52.767Z,7.10
2022-09-21T10:11:52.730Z,6.10
2022-09-21T10:12:52.731Z,9.30
2022-09-21T10:13:52.721Z,5.50
2022-09-21T10:14:52.700Z,7.20
2022-09-21T10:15:52.766Z,7.20
2022-09-21T10:16:52.671Z,6.20
2022-09-21T10:17:52.659Z,4.80
2022-09-21T10:18:52.661Z,7.30
2022-09-21T10:19:52.651Z,10.00
2022-09-21T10:20:52.631Z,5.60
2022-09-21T10:21:52.605Z,5.60
2022-09-21T10:22:52.748Z,6.80
2022-09-21T10:23:52.596Z,7.10
2022-09-21T10:24:52.560Z,9.30
2022-09-21T10:25:52.550Z,7.40
2022-09-21T10:26:52.553Z,8.60
2022-09-21T10:27:52.520Z,8.90
2022-09-21T10:28:52.519Z,6.60
2022-09-21T10:29:52.564Z,9.60
2022-09-21T10:30:52.541Z,9.10
2022-09-21T10:31:52.480Z,12.40
2022-09-21T10:32:52.460Z,8.10
2022-09-21T10:33:52.442Z,4.90
2022-09-21T10:34:52.469Z,5.20
2022-09-21T10:35:52.432Z,8.20
2022-09-21T10:36:52.430Z,6.60
2022-09-21T10:37:52.418Z,6.60
2022-09-21T10:38:52.396Z,7.70
2022-09-21T10:39:52.400Z,6.40
2022-09-21T10:40:52.380Z,6.20
2022-09-21T10:41:52.341Z,6.00
2022-09-21T10:42:52.342Z,4.70
2022-09-21T10:43:52.329Z,7.00
2022-09-21T10:44:52.311Z,6.60
2022-09-21T10:45:52.368Z,9.20
2022-09-21T10:46:52.513Z,6.00
2022-09-21T10:47:59.314Z,6.80
2022-09-21T10:48:52.254Z,7.20
2022-09-21T10:49:52.264Z,6.50
2022-09-21T10:50:52.225Z,5.70
2022-09-21T10:51:52.213Z,4.10
2022-09-21T10:52:52.204Z,3.40
2022-09-21T10:53:53.970Z,7.40
2022-09-21T10:54:52.243Z,3.10
2022-09-21T10:56:04.839Z,5.50
2022-09-21T10:56:53.143Z,4.30
2022-09-21T10:57:52.134Z,5.60
2022-09-21T10:58:52.125Z,3.70
2022-09-21T10:59:52.144Z,6.90
2022-09-21T11:00:52.093Z,3.00
2022-09-21T11:01:52.145Z,3.50
2022-09-21T11:02:52.120Z,5.60
2022-09-21T11:03:52.065Z,3.40
2022-09-21T11:04:52.052Z,7.60
2022-09-21T11:05:52.035Z,5.70
2022-09-21T11:06:52.017Z,5.00
2022-09-21T11:07:52.016Z,4.80
2022-09-21T11:08:51.992Z,5.10
2022-09-21T11:09:51.994Z,4.50
2022-09-21T11:10:51.963Z,5.00
2022-09-21T11:11:51.955Z,5.20
2022-09-21T11:12:51.934Z,15.10
2022-09-21T11:13:51.925Z,3.90
2022-09-21T11:14:51.923Z,2.30
2022-09-21T11:15:51.963Z,3.60
2022-09-21T11:16:51.885Z,3.80
2022-09-21T11:17:51.873Z,5.80
2022-09-21T11:18:51.856Z,6.20
2022-09-21T11:19:51.876Z,7.10
2022-09-21T11:20:51.825Z,6.60
2022-09-21T11:21:51.816Z,5.40
2022-09-21T11:22:56.689Z,8.00
2022-09-21T11:23:52.795Z,4.10
2022-09-21T11:24:51.785Z,4.90
2022-09-21T11:25:51.786Z,3.80
2022-09-21T11:26:51.756Z,5.70
2022-09-21T11:27:51.746Z,5.50
2022-09-21T11:28:51.728Z,5.00
2022-09-21T11:29:51.725Z,5.00
2022-09-21T11:30:51.755Z,6.50
2022-09-21T11:31:51.695Z,3.30
2022-09-21T11:32:51.677Z,4.30
2022-09-21T11:33:51.668Z,6.80
2022-09-21T11:34:51.644Z,4.30
2022-09-21T11:35:51.694Z,3.40
2022-09-21T11:36:51.615Z,3.80
2022-09-21T11:37:51.617Z,4.10
2022-09-21T11:38:51.598Z,2.80
2022-09-21T11:39:51.601Z,4.50
2022-09-21T11:40:51.566Z,4.00
2022-09-21T11:41:51.565Z,5.50
2022-09-21T11:42:51.547Z,4.60
2022-09-21T11:43:51.545Z,2.50
2022-09-21T11:44:51.527Z,3.90
2022-09-21T11:45:51.529Z,4.00
2022-09-21T11:46:51.486Z,4.70
2022-09-21T11:47:51.476Z,4.20
2022-09-21T11:48:51.467Z,3.80
2022-09-21T11:49:59.030Z,5.00
2022-09-21T11:50:52.494Z,6.30
2022-09-21T11:51:52.984Z,3.80
2022-09-21T11:52:51.409Z,2.20
2022-09-21T11:53:51.396Z,6.40
2022-09-21T11:54:51.387Z,3.50
2022-09-21T11:55:51.398Z,4.80
2022-09-21T11:56:51.396Z,5.40
2022-09-21T11:57:54.296Z,4.20
2022-09-21T11:58:53.061Z,4.00
2022-09-21T11:59:51.327Z,2.80
2022-09-21T12:00:51.298Z,4.20
2022-09-21T12:01:51.360Z,5.20
2022-09-21T12:03:51.268Z,2.70
2022-09-21T12:04:51.267Z,4.00
2022-09-21T12:05:51.286Z,5.60
2022-09-21T12:06:51.229Z,5.40
2022-09-21T12:07:51.218Z,1.80
2022-09-21T12:08:51.198Z,3.70
2022-09-21T12:09:51.208Z,2.70
2022-09-21T12:10:51.179Z,3.80
2022-09-21T12:11:51.169Z,3.00
2022-09-21T12:12:51.150Z,6.90
2022-09-21T12:13:51.147Z,3.90
2022-09-21T12:14:51.127Z,3.00
2022-09-21T12:15:51.178Z,5.70
2022-09-21T12:16:51.154Z,5.70
2022-09-21T12:17:51.099Z,3.70
2022-09-21T12:18:51.078Z,4.20
2022-09-21T12:19:51.071Z,3.50
2022-09-21T12:20:51.062Z,4.50
2022-09-21T12:21:51.043Z,5.00
2022-09-21T12:22:51.035Z,1.70
2022-09-21T12:23:51.032Z,3.70
2022-09-21T12:24:51.001Z,6.90
2022-09-21T12:25:51.140Z,2.60
2022-09-21T12:26:50.970Z,3.30
2022-09-21T12:27:50.981Z,5.80
2022-09-21T12:28:50.954Z,3.00
2022-09-21T12:29:50.961Z,4.20
2022-09-21T12:30:50.973Z,3.20
2022-09-21T12:31:50.912Z,2.70
2022-09-21T12:32:50.893Z,3.30
2022-09-21T12:33:50.892Z,3.70
2022-09-21T12:34:50.893Z,2.90
2022-09-21T12:36:50.843Z,3.20
2022-09-21T12:37:50.871Z,3.10
2022-09-21T12:38:50.823Z,2.10
2022-09-21T12:39:50.813Z,2.60
2022-09-21T12:40:50.814Z,3.00
2022-09-21T12:41:50.794Z,4.10
2022-09-21T12:42:50.774Z,4.60
2022-09-21T12:43:50.765Z,8.20
2022-09-21T12:44:50.744Z,4.10
2022-09-21T12:45:50.842Z,4.30
2022-09-21T12:46:52.960Z,2.60
2022-09-21T12:47:50.704Z,4.40
2022-09-21T12:48:50.698Z,5.80
2022-09-21T12:49:50.685Z,3.30
2022-09-21T12:50:50.694Z,6.80
2022-09-21T12:51:50.706Z,2.30
2022-09-21T12:52:50.646Z,2.80
2022-09-21T12:53:51.329Z,6.80
2022-09-21T12:54:50.615Z,4.30
2022-09-21T12:55:50.613Z,4.00
2022-09-21T12:56:50.606Z,3.40
2022-09-21T12:58:10.899Z,4.40
2022-09-21T12:58:51.658Z,4.20
2022-09-21T12:59:50.557Z,6.50
2022-09-21T13:00:50.605Z,2.40
2022-09-21T13:01:56.338Z,2.70
2022-09-21T13:02:51.519Z,5.70
2022-09-21T13:03:50.504Z,3.10
2022-09-21T13:04:50.495Z,2.50
2022-09-21T13:05:50.476Z,7.90
2022-09-21T13:06:50.479Z,2.70
2022-09-21T13:07:50.455Z,3.00
2022-09-21T13:09:50.430Z,2.40
2022-09-21T13:10:54.946Z,2.50
2022-09-21T13:11:50.415Z,2.60
2022-09-21T13:12:50.386Z,3.90
2022-09-21T13:13:50.377Z,2.00
2022-09-21T13:14:50.357Z,5.00
2022-09-21T13:15:50.348Z,3.50
2022-09-21T13:16:50.374Z,1.90
2022-09-21T13:17:50.327Z,3.40
2022-09-21T13:18:50.308Z,2.70
2022-09-21T13:19:50.301Z,4.20
2022-09-21T13:20:50.288Z,3.60
2022-09-21T13:21:50.288Z,5.40
2022-09-21T13:22:50.259Z,2.40
2022-09-21T13:23:50.254Z,3.60
2022-09-21T13:24:50.229Z,4.90
2022-09-21T13:25:50.248Z,6.60
2022-09-21T13:26:50.208Z,4.90
2022-09-21T13:27:50.208Z,3.30
2022-09-21T13:28:50.179Z,3.30
2022-09-21T13:29:50.249Z,5.90
2022-09-21T13:30:50.157Z,2.70
2022-09-21T13:31:50.243Z,3.10
2022-09-21T13:32:50.130Z,5.20
2022-09-21T13:33:50.120Z,4.40
2022-09-21T13:34:50.109Z,1.70
2022-09-21T13:35:50.106Z,2.70
2022-09-21T13:36:50.090Z,2.90
2022-09-21T13:37:50.072Z,2.90
2022-09-21T13:38:50.051Z,2.30
2022-09-21T13:39:50.048Z,5.10
2022-09-21T13:40:50.076Z,2.50
2022-09-21T13:42:02.777Z,3.00
2022-09-21T13:42:51.004Z,2.80
2022-09-21T13:43:49.991Z,3.50
2022-09-21T13:44:49.988Z,2.50
2022-09-21T13:45:50.095Z,2.50
2022-09-21T13:46:50.014Z,2.00
2022-09-21T13:47:49.942Z,3.60
2022-09-21T13:48:49.930Z,6.40
2022-09-21T13:49:49.911Z,2.50
2022-09-21T13:50:49.903Z,2.60
2022-09-21T13:51:49.893Z,2.70
2022-09-21T13:52:49.872Z,2.40
2022-09-21T13:53:49.861Z,2.20
2022-09-21T13:54:49.854Z,2.90
2022-09-21T13:55:49.834Z,3.70
2022-09-21T13:56:49.846Z,4.40
2022-09-21T13:57:49.812Z,3.00
2022-09-21T13:58:49.800Z,3.20
2022-09-21T13:59:49.783Z,4.10
2022-09-21T14:00:49.836Z,2.90
2022-09-21T14:01:49.790Z,5.20
2022-09-21T14:02:49.834Z,3.60
2022-09-21T14:03:49.733Z,2.40
2022-09-21T14:04:49.714Z,4.30
2022-09-21T14:05:49.707Z,2.10
2022-09-21T14:06:49.704Z,2.90
2022-09-21T14:07:49.685Z,2.90
2022-09-21T14:08:49.703Z,4.30
2022-09-21T14:09:49.653Z,2.50
2022-09-21T14:10:49.633Z,2.80
2022-09-21T14:11:49.642Z,3.40
2022-09-21T14:12:49.611Z,3.80
2022-09-21T14:13:49.600Z,2.70
2022-09-21T14:14:49.583Z,4.20
2022-09-21T14:15:49.575Z,2.20
2022-09-21T14:16:51.775Z,4.80
2022-09-21T14:17:49.550Z,2.40
2022-09-21T14:18:49.531Z,3.90
2022-09-21T14:19:49.523Z,3.00
2022-09-21T14:20:49.504Z,2.10
2022-09-21T14:21:50.007Z,2.30
2022-09-21T14:22:49.482Z,2.50
2022-09-21T14:23:49.473Z,2.90
2022-09-21T14:24:49.453Z,3.40
2022-09-21T14:25:49.442Z,3.40
2022-09-21T14:26:49.421Z,2.80
2022-09-21T14:27:52.507Z,3.70
2022-09-21T14:28:49.407Z,5.00
2022-09-21T14:29:49.383Z,4.30
2022-09-21T14:30:49.364Z,6.70
2022-09-21T14:31:49.417Z,4.80
2022-09-21T14:32:49.364Z,1.60
2022-09-21T14:33:49.336Z,3.10
2022-09-21T14:34:49.325Z,4.40
2022-09-21T14:35:49.313Z,3.10
2022-09-21T14:36:49.292Z,4.20
2022-09-21T14:37:49.294Z,2.40
2022-09-21T14:38:52.120Z,4.80
2022-09-21T14:39:49.263Z,3.40
2022-09-21T14:40:49.242Z,3.90
2022-09-21T14:41:49.242Z,1.70
2022-09-21T14:42:49.222Z,4.30
2022-09-21T14:43:49.203Z,1.90
2022-09-21T14:44:49.185Z,2.00
2022-09-21T14:45:49.174Z,4.10
2022-09-21T14:46:49.204Z,3.40
2022-09-21T14:47:49.153Z,1.30
2022-09-21T14:48:49.132Z,5.00
2022-09-21T14:49:49.123Z,3.80
2022-09-21T14:50:49.153Z,3.40
2022-09-21T14:51:55.641Z,4.10
2022-09-21T14:52:50.083Z,3.60
2022-09-21T14:53:49.074Z,3.30
2022-09-21T14:54:49.053Z,7.80
2022-09-21T14:55:49.043Z,5.00
2022-09-21T14:56:49.024Z,2.30
2022-09-21T14:57:49.041Z,3.40
2022-09-21T14:58:49.014Z,3.10
2022-09-21T14:59:48.994Z,2.00
2022-09-21T15:00:48.997Z,3.00
2022-09-21T15:01:48.967Z,2.60
2022-09-21T15:02:48.965Z,4.70
2022-09-21T15:03:49.065Z,3.40
2022-09-21T15:04:53.776Z,1.60
2022-09-21T15:05:49.916Z,3.20
2022-09-21T15:06:48.893Z,2.50
2022-09-21T15:07:48.978Z,3.20
2022-09-21T15:08:48.864Z,2.70
2022-09-21T15:09:48.863Z,2.30
2022-09-21T15:10:53.083Z,3.80
2022-09-21T15:11:49.833Z,2.50
2022-09-21T15:12:48.836Z,4.90
2022-09-21T15:13:48.815Z,2.50
2022-09-21T15:14:48.793Z,5.10
2022-09-21T15:15:48.784Z,3.80
2022-09-21T15:16:48.771Z,2.00
2022-09-21T15:17:48.776Z,3.20
2022-09-21T15:18:48.755Z,4.00
2022-09-21T15:19:48.736Z,2.30
2022-09-21T15:20:48.715Z,5.40
2022-09-21T15:21:48.708Z,14.30
2022-09-21T15:22:48.704Z,12.70
2022-09-21T15:23:48.675Z,3.70
2022-09-21T15:24:48.666Z,4.10
2022-09-21T15:25:48.656Z,3.10
2022-09-21T15:26:48.638Z,1.70
2022-09-21T15:27:48.627Z,1.70
2022-09-21T15:29:08.514Z,3.40
2022-09-21T15:29:49.599Z,5.20
2022-09-21T15:30:48.595Z,3.80
2022-09-21T15:31:48.675Z,3.00
2022-09-21T15:32:48.569Z,2.70
2022-09-21T15:33:48.558Z,2.60
2022-09-21T15:34:48.535Z,3.90
2022-09-21T15:35:48.530Z,2.30
2022-09-21T15:36:48.507Z,2.30
2022-09-21T15:37:48.506Z,2.90
2022-09-21T15:38:48.498Z,4.30
2022-09-21T15:39:48.498Z,3.60
2022-09-21T15:40:48.526Z,2.10
2022-09-21T15:41:48.448Z,2.80
2022-09-21T15:42:48.429Z,2.70
2022-09-21T15:43:48.442Z,2.10
2022-09-21T15:44:48.424Z,2.50
2022-09-21T15:45:48.440Z,3.40
2022-09-21T15:46:48.418Z,2.20
2022-09-21T15:47:48.369Z,4.60
2022-09-21T15:48:48.370Z,2.20
2022-09-21T15:49:48.349Z,3.00
2022-09-21T15:50:48.340Z,5.70
2022-09-21T15:51:48.330Z,1.50
2022-09-21T15:52:48.312Z,3.10
2022-09-21T15:53:48.319Z,4.30
2022-09-21T15:54:48.282Z,2.70
2022-09-21T15:55:48.281Z,3.10
2022-09-21T15:56:48.263Z,2.10
2022-09-21T15:57:48.251Z,2.00
2022-09-21T15:58:48.241Z,3.80
2022-09-21T15:59:48.221Z,3.10
2022-09-21T16:00:48.258Z,1.20
2022-09-21T16:01:48.201Z,3.30
2022-09-21T16:02:48.184Z,4.70
2022-09-21T16:03:48.241Z,2.90
2022-09-21T16:04:48.152Z,3.30
2022-09-21T16:05:48.142Z,3.10
2022-09-21T16:06:48.133Z,3.20
2022-09-21T16:07:48.130Z,2.40
2022-09-21T16:08:48.120Z,1.00
2022-09-21T16:09:48.113Z,2.70
2022-09-21T16:10:48.091Z,3.20
2022-09-21T16:11:48.098Z,5.00
2022-09-21T16:12:48.062Z,3.60
2022-09-21T16:13:48.054Z,4.50
2022-09-21T16:14:48.065Z,2.40
2022-09-21T16:15:48.081Z,1.90
2022-09-21T16:16:48.006Z,3.40
2022-09-21T16:17:47.994Z,3.50
2022-09-21T16:18:47.995Z,1.90
2022-09-21T16:19:47.987Z,3.40
2022-09-21T16:20:47.954Z,1.50
2022-09-21T16:21:47.946Z,4.20
2022-09-21T16:22:48.086Z,3.40
2022-09-21T16:23:47.935Z,2.60
2022-09-21T16:24:47.895Z,3.30
2022-09-21T16:25:47.903Z,2.70
2022-09-21T16:26:47.884Z,1.20
2022-09-21T16:27:47.868Z,2.80
2022-09-21T16:28:47.865Z,2.10
2022-09-21T16:29:47.836Z,5.00
2022-09-21T16:30:47.828Z,2.10
2022-09-21T16:31:51.281Z,5.10
2022-09-21T16:32:47.796Z,8.30
2022-09-21T16:33:47.796Z,5.40
2022-09-21T16:34:47.775Z,6.70
2022-09-21T16:35:47.785Z,4.70
2022-09-21T16:36:47.747Z,3.20
2022-09-21T16:37:47.742Z,4.10
2022-09-21T16:38:47.737Z,3.40
2022-09-21T16:39:47.718Z,3.90
2022-09-21T16:40:47.833Z,5.50
2022-09-21T16:41:47.694Z,2.90
2022-09-21T16:42:47.676Z,6.80
2022-09-21T16:43:47.656Z,5.40
2022-09-21T16:44:47.656Z,4.10
2022-09-21T16:45:47.637Z,3.90
2022-09-21T16:46:47.676Z,5.30
2022-09-21T16:47:47.606Z,2.70
2022-09-21T16:48:47.597Z,3.50
2022-09-21T16:49:47.618Z,3.90
2022-09-21T16:50:47.568Z,3.00
2022-09-21T16:51:47.547Z,2.80
2022-09-21T16:52:47.545Z,3.00
2022-09-21T16:53:47.516Z,1.30
2022-09-21T16:54:47.528Z,3.90
2022-09-21T16:55:47.496Z,3.60
2022-09-21T16:56:47.487Z,2.10
2022-09-21T16:57:47.476Z,1.70
2022-09-21T16:58:47.465Z,2.50
2022-09-21T16:59:47.457Z,3.40
2022-09-21T17:00:47.473Z,3.70
2022-09-21T17:01:47.452Z,4.40
2022-09-21T17:02:47.408Z,2.60
2022-09-21T17:03:47.394Z,3.90
2022-09-21T17:04:47.387Z,3.50
2022-09-21T17:05:47.377Z,3.80
2022-09-21T17:06:47.357Z,5.00
2022-09-21T17:07:47.347Z,1.80
2022-09-21T17:08:47.327Z,3.30
2022-09-21T17:09:47.316Z,2.00
2022-09-21T17:10:47.304Z,2.70
2022-09-21T17:11:47.286Z,2.50
2022-09-21T17:12:47.277Z,4.10
2022-09-21T17:13:47.297Z,2.20
2022-09-21T17:14:47.682Z,2.70
2022-09-21T17:15:47.322Z,2.50
2022-09-21T17:16:47.226Z,3.00
2022-09-21T17:17:47.206Z,2.90
2022-09-21T17:18:47.195Z,3.90
2022-09-21T17:19:47.195Z,4.10
2022-09-21T17:20:47.167Z,2.40
2022-09-21T17:21:47.155Z,3.00
2022-09-21T17:22:47.147Z,2.60
2022-09-21T17:23:47.134Z,2.50
2022-09-21T17:24:50.716Z,4.10
2022-09-21T17:25:47.107Z,2.30
2022-09-21T17:26:47.098Z,3.00
2022-09-21T17:27:47.075Z,3.70
2022-09-21T17:28:47.065Z,3.70
2022-09-21T17:29:47.066Z,1.80
2022-09-21T17:30:47.044Z,1.60
2022-09-21T17:31:47.025Z,1.40
2022-09-21T17:32:47.016Z,2.60
2022-09-21T17:33:47.003Z,2.60
2022-09-21T17:34:47.006Z,2.80
2022-09-21T17:35:46.976Z,3.00
2022-09-21T17:36:46.966Z,1.80
2022-09-21T17:37:46.945Z,3.20
2022-09-21T17:38:54.685Z,3.60
2022-09-21T17:39:46.927Z,1.70
2022-09-21T17:40:46.958Z,3.00
2022-09-21T17:41:46.895Z,4.40
2022-09-21T17:42:46.885Z,3.80
2022-09-21T17:43:46.867Z,3.90